Airfield :
LOGIN :

Register | Disclaimer

   EN    FR    IT 

 










Legend :    VFR   Marginal VFR   IFR   Intensive IFR   Very Intensive IFR
Visi :
Ceiling :
>= 8 km
>= 3000ft
5 to 8 km
1000 to 3000 ft
1500m to 5 km
500 to 1000 ft
800 to 1500m
200 to 500 ft
< 800m
< 200 ft
Symbols :   Thunderstorms  Fog  Heavy snow  Heavy precipitations  Wind > 20 kt
SIGMETs :     Misc.  Thunderstorms  Icing  Turbulence  Mountain Waves  Volcanic Ashes






- Airport Elevation : 2945 ft
- IATA code : RGS


LEBG - Burgos

CURRENT METAR :
  • 260100Z AUTO 20002KT 2100 BR BCFG FEW006 OVC057 03/03 Q1018

EXPIRED METARs :
  • 260030Z AUTO VRB01KT 3000 BR FEW046 OVC056 03/03 Q1018
  • 260000Z AUTO VRB01KT 5000 BR BKN044 OVC050 03/03 Q1017
  • 252330Z AUTO 30002KT 6000 SCT042 BKN050 BKN060 04/03 Q1017
  • 252300Z AUTO VRB01KT 4500 BR OVC039 04/03 Q1017

TAF TAF LEBG
Valid from the 25 at 18:00 until the 26 at 03:00 UTC


251700Z 2518/2603 VRB04KT 9999 BKN030 BKN040
PROB40
TEMPO 2518/2520 3000 RA FEW008 BKN012
BECMG 2520/2522 OVC005
BECMG 2523/2601 OVC015
TEMPO 2601/2603 1000 BCFG BKN001 OVC003



MET'MAP, your aeronautical weather chart ! - Copyright ORBIFLY December 2007 - Disclaimer

ORBIFLY MET'MAP TEAM :

Programming & Development : Alexandra Zaïnal
Concept & original design : Baudouin d'Aumeries
Assistance for programming : Marc-Olivier Méhu
Technical & hardware support : Manuel Goepfert

Contact : metmap@orbifly.com




SOURCES & CREDITS :

   NOAA